x

Atwater Park, Wi (45013) Weather Station

1:39pm - Wed 20th Sep 2017 All times are CDT. -5 hours from GMT.

  • Wind
    18mph, 22mph gusts
  • Sea Temp 68°f
  • Air Temp 69°f
  • Sea Pressure 1011.5mb
  • Atwater Park, Wi
  • Atwater Park, Wi

More Historic Weather Station data

Upgrade to MSW Pro to gain access to the past 30 days of data for over 8000 Wavebouys and Weather Stations around the globe.

Join

Comparision Forecast

View Surf forecast
   
Wed 09/20 1:39pm 18 22 mph 1011.5mb 68f 69f
1:09pm 18 20 mph 1012.1mb 68f 69f
12:39pm 16 20 mph 1012.7mb 68f 69f
12:09pm 13 18 mph 1012.9mb 68f 69f
11:39am 16 20 mph 1012.9mb 68f 69f
11:09am 16 20 mph 1013.4mb 68f 68f
10:39am 16 20 mph 1013.4mb 68f 68f
10:09am 18 22 mph 1013.2mb 68f 68f
9:39am 20 25 mph 1013mb 68f 68f
9:09am 18 22 mph 1012.6mb 68f 68f
8:39am 18 22 mph 1012.8mb - 69f
8:09am 16 20 mph 1013mb 68f 68f
7:39am 13 18 mph 1013.2mb 68f 68f
7:09am 13 16 mph 1013.2mb 68f 68f
6:39am 13 13 mph 1013.2mb 68f 68f
6:09am 13 16 mph 1013.2mb 68f 68f
5:39am 11 11 mph 1013.1mb 68f 68f
5:09am 9 11 mph 1013.2mb 68f 68f
4:39am 4 7 mph 1013.1mb 68f 67f
4:09am 2 4 mph 1013.8mb 68f 66f
3:39am 2 2 mph 1013.7mb 68f 66f
3:09am 2 2 mph 1013.6mb 68f 66f
2:39am 2 4 mph 1013.4mb 68f 67f
2:09am 7 9 mph 1013.1mb 68f 68f
1:39am 9 11 mph 1013.1mb 68f 68f
1:09am 11 16 mph 1013.2mb 68f 68f
12:39am 9 13 mph 1013.4mb 68f 68f
12:09am 11 11 mph 1013.2mb 68f 68f
Tue 09/19 11:39pm 11 13 mph 1013.5mb 68f 67f
11:09pm 13 16 mph 1013.6mb 68f 67f
10:39pm 9 11 mph 1013.9mb 68f 67f
10:09pm 4 7 mph 1014.1mb 68f 67f
9:39pm 7 9 mph 1013.8mb 68f 67f
9:09pm 7 9 mph 1014mb 68f 66f
8:39pm 2 4 mph 1014.1mb 68f 66f
8:09pm 4 9 mph 1014.1mb 68f 66f
7:39pm 2 4 mph 1014.1mb 68f 66f
7:09pm 4 7 mph 1013.7mb 68f 66f
6:39pm 2 4 mph 1013.8mb 68f 65f
6:09pm  -  2 mph 1014mb 68f 65f
5:39pm 4 7 mph 1014mb 68f 66f
5:09pm 4 7 mph 1014.1mb 68f 66f
4:39pm 9 13 mph 1014.1mb - 66f
4:09pm 11 13 mph 1014.4mb 68f 67f
3:39pm 9 11 mph 1014.4mb 68f 67f
3:09pm 11 13 mph 1014.6mb 68f 66f
2:39pm 7 9 mph 1014.8mb 68f 67f
2:09pm 7 9 mph 1015.1mb 68f 67f
1:39pm 7 9 mph 1015.2mb 68f 67f
1:09pm 9 11 mph 1015mb 68f 66f
12:39pm 11 13 mph 1015.4mb 68f 66f
12:09pm 11 13 mph 1015.7mb 68f 66f
11:39am 9 11 mph 1015.6mb 68f 67f
11:09am 7 11 mph 1015.8mb 68f 67f
10:39am 9 11 mph 1015.8mb 68f 67f
10:09am 9 13 mph 1015.8mb 68f 67f
9:39am 4 9 mph 1015.9mb 68f 68f
9:09am 7 7 mph 1015.7mb 67f 68f
8:39am 9 13 mph 1015.4mb 67f 68f
8:09am 9 11 mph 1014.9mb 67f 68f
7:39am 9 11 mph 1015.1mb 67f 68f
7:09am 7 9 mph 1015.1mb 67f 67f
6:39am 7 9 mph 1014.9mb 67f 67f
6:09am 11 13 mph 1014.7mb 67f 66f
5:39am 11 13 mph 1014.8mb 67f 65f
5:09am 7 11 mph 1014.8mb 67f 67f
4:39am 9 11 mph 1014.6mb 67f 66f
4:09am 7 11 mph 1014.9mb 67f 66f
3:39am 11 13 mph 1015mb 67f 65f
3:09am 11 16 mph 1014.9mb 67f 65f
2:39am 9 11 mph 1014.9mb 67f 65f
2:09am 7 9 mph 1015mb 67f 66f
1:39am 4 7 mph 1015.3mb 67f 66f
1:09am  -  4 mph 1015.6mb 67f 66f
12:39am 2 4 mph 1015.8mb - 66f
12:09am 7 9 mph 1015.6mb 67f 67f
Mon 09/18 11:39pm 9 11 mph 1015.5mb 67f 66f
11:09pm 11 13 mph 1015.9mb 67f 66f
10:39pm 11 13 mph 1016.5mb 67f 66f
10:09pm 9 11 mph 1016.8mb 67f 66f
9:39pm 9 11 mph 1017mb 67f 66f
9:09pm 9 11 mph 1017.2mb 67f 66f
8:39pm 9 13 mph 1017.2mb 67f 66f
8:09pm 11 13 mph 1017.2mb 67f 66f
7:39pm 11 16 mph 1017.1mb 67f 66f
7:09pm 11 16 mph 1017.1mb 67f 66f
6:39pm 11 16 mph 1017.1mb 68f 66f
6:09pm 11 16 mph 1017mb 68f 65f
5:39pm 11 13 mph 1017.4mb 68f 65f
5:09pm 9 13 mph 1017.5mb 68f 65f
4:39pm 11 13 mph 1017.5mb 68f 65f
4:09pm 11 13 mph 1017.9mb 68f 65f
3:39pm 9 11 mph 1018.1mb 68f 64f
3:09pm 7 11 mph 1018.5mb 68f 64f
2:39pm 7 9 mph 1018.8mb 68f 64f
2:09pm 7 9 mph 1019.1mb 68f 64f
1:39pm 9 13 mph 1019.1mb 68f 64f
1:09pm 9 13 mph 1019.6mb 68f 64f
12:39pm 11 13 mph 1019.6mb 68f 64f
12:09pm 11 13 mph 1020.2mb 67f 65f
11:39am 11 13 mph 1020.5mb 67f 65f
11:09am 9 11 mph 1020.7mb 67f 65f
10:39am 11 13 mph 1020.8mb 67f 65f
10:09am 11 13 mph 1020.8mb 67f 65f
9:39am 11 13 mph 1020.7mb 67f 63f
9:09am 9 11 mph 1020.6mb 67f 61f
8:39am 9 11 mph 1020.6mb - 61f
8:09am 9 11 mph 1020.2mb 67f 61f
7:39am 7 9 mph 1020.4mb 67f 61f
7:09am 7 11 mph 1020mb 67f 62f
6:39am 9 11 mph 1020mb 67f 62f
6:09am 11 13 mph 1019.9mb 67f 62f
5:39am 11 13 mph 1019.8mb 67f 61f
5:09am 11 13 mph 1020mb 67f 60f
4:39am 9 11 mph 1019.6mb 67f 60f
4:09am 11 13 mph 1019.3mb 67f 61f
3:39am 13 16 mph 1019.2mb 67f 62f
3:09am 13 16 mph 1019.3mb 67f 62f
2:39am 9 11 mph 1019.3mb 67f 60f
2:09am 11 13 mph 1019.6mb 67f 60f
1:39am 11 16 mph 1019.4mb 67f 61f
1:09am 11 13 mph 1019.6mb 67f 61f
12:39am 9 11 mph 1019.7mb 67f 61f
12:09am 9 11 mph 1020.2mb 67f 62f
Sun 09/17 11:39pm 7 9 mph 1020mb 67f 63f
11:09pm 9 11 mph 1020.2mb 67f 63f
10:39pm 9 11 mph 1020mb 67f 64f
10:09pm 9 9 mph 1020mb 67f 64f
9:39pm 7 7 mph 1020.2mb 66f 64f
9:09pm 4 4 mph 1020mb 66f 64f
8:39pm 7 7 mph 1019.7mb 66f 65f
8:09pm 9 11 mph 1019.4mb 66f 66f
7:39pm 9 11 mph 1019.1mb 66f 66f
7:09pm 9 11 mph 1018.8mb 66f 67f
6:39pm 9 11 mph 1018.4mb 66f 67f
6:09pm 9 13 mph 1018.3mb 66f 67f
5:39pm 13 16 mph 1018mb 66f 68f
5:09pm 11 13 mph 1017.9mb 67f 69f
4:39pm 9 11 mph 1017.6mb - 71f
4:09pm 9 11 mph 1017.5mb 67f 71f
3:39pm 7 9 mph 1017.6mb 67f 71f
3:09pm 9 11 mph 1017.6mb 67f 73f
2:39pm 9 13 mph 1017.6mb 67f 72f
2:09pm 13 16 mph 1017.4mb 67f 72f
1:39pm 9 11 mph 1017.4mb 67f 71f
1:09pm 11 11 mph 1017.4mb 67f 74f
12:39pm 9 11 mph 1017.4mb 67f 73f
12:09pm 13 16 mph 1017.4mb 67f 74f
11:39am 9 13 mph 1017.2mb 67f 75f
11:09am 4 7 mph 1017.1mb 67f 71f
10:39am 4 9 mph 1017mb 67f 73f
10:09am 2 4 mph 1016.8mb 67f 73f
9:39am 7 9 mph 1016.7mb 67f 72f
9:09am 7 11 mph 1016.7mb 67f 72f
8:39am 7 9 mph 1016.7mb 66f 71f
8:09am 9 11 mph 1016.8mb 66f 71f
7:39am 9 11 mph 1017mb 66f 71f
7:09am 11 11 mph 1017mb 66f 71f
6:39am 7 11 mph 1017.1mb 66f 70f
6:09am 9 11 mph 1016.6mb 66f 69f
5:39am 9 11 mph 1016.3mb 65f 69f
5:09am 9 11 mph 1016mb 65f 69f
4:39am 11 13 mph 1015.8mb 65f 69f
4:09am 9 11 mph 1015.9mb 65f 67f
3:39am 9 11 mph 1015.8mb 65f 68f
3:09am 11 13 mph 1015.7mb 66f 68f
2:39am 9 11 mph 1015.7mb 66f 68f
2:09am 9 11 mph 1015.9mb 66f 67f
1:39am 9 11 mph 1015.8mb 66f 68f
1:09am 11 11 mph 1016.2mb 66f 68f
12:39am 11 11 mph 1016.5mb - 68f
12:09am 9 11 mph 1016.8mb 66f 68f
Sat 09/16 11:39pm 9 9 mph 1016.9mb 66f 68f
11:09pm 7 9 mph 1017.1mb 66f 68f
10:39pm 9 9 mph 1017.1mb 66f 68f
10:09pm 7 7 mph 1017.3mb 66f 68f
9:39pm 7 9 mph 1017.2mb 66f 68f
9:09pm 11 13 mph 1016.9mb 66f 70f
8:39pm 9 11 mph 1016.5mb 66f 70f
8:09pm 9 11 mph 1016.4mb 66f 70f
7:39pm 7 9 mph 1016.2mb 67f 69f